createdAt,value
2023-02-16T00:01:54.772Z,81.20
2023-02-16T00:04:22.535Z,87.30
2023-02-16T00:06:49.617Z,83.83
2023-02-16T00:09:16.734Z,71.37
2023-02-16T00:12:02.546Z,82.13
2023-02-16T00:14:29.046Z,90.83
2023-02-16T00:16:57.250Z,82.90
2023-02-16T00:19:28.010Z,72.90
2023-02-16T00:21:56.750Z,82.10
2023-02-16T00:24:24.682Z,85.43
2023-02-16T00:26:51.225Z,81.50
2023-02-16T00:29:21.190Z,86.20
2023-02-16T00:31:48.006Z,87.20
2023-02-16T00:34:26.850Z,88.97
2023-02-16T00:36:53.485Z,74.53
2023-02-16T00:39:19.936Z,87.00
2023-02-16T00:41:52.367Z,82.40
2023-02-16T00:44:29.993Z,76.93
2023-02-16T00:46:56.843Z,85.53
2023-02-16T00:49:23.347Z,83.63
2023-02-16T00:51:50.426Z,89.93
2023-02-16T00:54:16.909Z,79.63
2023-02-16T00:56:43.579Z,93.17
2023-02-16T00:59:16.230Z,81.70
2023-02-16T01:01:42.957Z,85.87
2023-02-16T01:04:13.853Z,93.67
2023-02-16T01:06:58.966Z,95.73
2023-02-16T01:09:44.018Z,88.17
2023-02-16T01:12:15.317Z,90.10
2023-02-16T01:14:52.397Z,88.20
2023-02-16T01:17:18.937Z,89.67
2023-02-16T01:19:45.401Z,86.53
2023-02-16T01:22:11.875Z,93.13
2023-02-16T01:24:38.463Z,88.77
2023-02-16T01:27:04.916Z,88.90
2023-02-16T01:29:31.365Z,90.50
2023-02-16T01:31:57.970Z,91.23
2023-02-16T01:34:25.482Z,91.93
2023-02-16T01:36:52.084Z,76.07
2023-02-16T01:39:20.680Z,93.73
2023-02-16T01:41:56.550Z,94.93
2023-02-16T01:44:47.007Z,81.07
2023-02-16T01:47:52.050Z,100.30
2023-02-16T01:50:27.274Z,87.57
2023-02-16T01:53:19.894Z,87.40
2023-02-16T01:55:48.205Z,96.23
2023-02-16T01:58:38.662Z,89.77
2023-02-16T02:01:05.352Z,83.60
2023-02-16T02:03:53.174Z,76.93
2023-02-16T02:06:31.149Z,79.77
2023-02-16T02:09:03.920Z,97.00
2023-02-16T02:11:34.616Z,83.67
2023-02-16T02:14:20.094Z,89.23
2023-02-16T02:16:59.650Z,94.33
2023-02-16T02:19:26.263Z,92.47
2023-02-16T02:22:49.930Z,93.23
2023-02-16T02:25:47.964Z,89.87
2023-02-16T02:28:25.543Z,118.83
2023-02-16T02:31:23.083Z,87.90
2023-02-16T02:34:01.901Z,79.73
2023-02-16T02:36:40.633Z,89.00
2023-02-16T02:39:33.883Z,101.87
2023-02-16T02:42:06.275Z,113.90
2023-02-16T02:44:40.922Z,92.23
2023-02-16T02:47:07.788Z,89.17
2023-02-16T02:49:34.265Z,83.97
2023-02-16T02:52:00.945Z,106.93
2023-02-16T02:54:52.621Z,107.03
2023-02-16T02:57:43.212Z,116.43
2023-02-16T03:00:28.489Z,125.97
2023-02-16T03:03:01.664Z,102.73
2023-02-16T03:05:29.594Z,100.57
2023-02-16T03:08:14.004Z,112.87
2023-02-16T03:11:09.237Z,123.40
2023-02-16T03:14:06.025Z,119.10
2023-02-16T03:16:38.483Z,107.07
2023-02-16T03:19:25.575Z,126.73
2023-02-16T03:22:10.773Z,112.57
2023-02-16T03:24:55.842Z,110.30
2023-02-16T03:27:44.332Z,126.87
2023-02-16T03:30:11.954Z,115.27
2023-02-16T03:32:39.536Z,104.60
2023-02-16T03:35:06.540Z,122.37
2023-02-16T03:37:33.437Z,119.93
2023-02-16T03:40:18.678Z,102.90
2023-02-16T03:42:50.125Z,115.43
2023-02-16T03:45:17.473Z,120.20
2023-02-16T03:47:43.932Z,115.40
2023-02-16T03:50:10.491Z,103.07
2023-02-16T03:52:36.924Z,106.23
2023-02-16T03:55:03.520Z,124.57
2023-02-16T03:57:29.956Z,105.10
2023-02-16T03:59:59.183Z,110.33
2023-02-16T04:02:27.705Z,122.57
2023-02-16T04:04:54.302Z,118.63
2023-02-16T04:07:20.835Z,117.40
2023-02-16T04:09:47.362Z,132.63
2023-02-16T04:12:32.307Z,115.50
2023-02-16T04:14:58.821Z,115.47
2023-02-16T04:17:25.271Z,109.97
2023-02-16T04:19:51.728Z,111.03
2023-02-16T04:22:18.215Z,111.83
2023-02-16T04:24:44.688Z,120.53
2023-02-16T04:27:11.214Z,133.70
2023-02-16T04:29:37.637Z,105.90
2023-02-16T04:32:04.886Z,104.50
2023-02-16T04:34:31.421Z,113.80
2023-02-16T04:36:57.874Z,97.73
2023-02-16T04:39:24.336Z,124.60
2023-02-16T04:41:50.808Z,119.67
2023-02-16T04:44:17.336Z,103.33
2023-02-16T04:46:43.861Z,107.63
2023-02-16T04:49:10.301Z,131.57
2023-02-16T04:51:36.761Z,101.20
2023-02-16T04:54:03.237Z,123.73
2023-02-16T04:56:29.777Z,126.20
2023-02-16T04:58:56.578Z,124.00
2023-02-16T05:01:24.851Z,122.10
2023-02-16T05:03:51.415Z,118.87
2023-02-16T05:06:18.446Z,118.47
2023-02-16T05:08:45.371Z,107.00
2023-02-16T05:11:30.523Z,123.90
2023-02-16T05:14:16.758Z,116.77
2023-02-16T05:16:43.567Z,127.43
2023-02-16T05:19:10.029Z,114.87
2023-02-16T05:21:36.584Z,138.57
2023-02-16T05:24:09.289Z,113.23
2023-02-16T05:26:37.035Z,112.30
2023-02-16T05:29:04.083Z,105.87
2023-02-16T05:31:38.007Z,106.30
2023-02-16T05:34:04.658Z,106.80
2023-02-16T05:36:31.282Z,112.53
2023-02-16T05:38:57.752Z,113.23
2023-02-16T05:41:24.319Z,120.00
2023-02-16T05:43:52.304Z,119.87
2023-02-16T05:46:19.830Z,108.37
2023-02-16T05:48:46.435Z,111.27
2023-02-16T05:51:13.496Z,101.53
2023-02-16T05:53:40.218Z,103.67
2023-02-16T05:56:07.543Z,111.30
2023-02-16T05:58:34.101Z,110.27
2023-02-16T06:01:01.028Z,105.80
2023-02-16T06:03:27.893Z,120.33
2023-02-16T06:06:00.617Z,109.90
2023-02-16T06:08:27.824Z,102.07
2023-02-16T06:10:54.689Z,104.03
2023-02-16T06:13:22.007Z,103.47
2023-02-16T06:15:52.280Z,101.50
2023-02-16T06:18:18.878Z,104.17
2023-02-16T06:20:45.694Z,109.60
2023-02-16T06:23:13.349Z,111.57
2023-02-16T06:25:44.387Z,103.37
2023-02-16T06:28:11.350Z,114.03
2023-02-16T06:30:38.011Z,99.03
2023-02-16T06:33:04.602Z,96.87
2023-02-16T06:35:31.404Z,95.07
2023-02-16T06:37:59.242Z,101.87
2023-02-16T06:40:26.064Z,107.73
2023-02-16T06:42:52.565Z,94.20
2023-02-16T06:45:19.382Z,111.00
2023-02-16T06:47:45.921Z,105.10
2023-02-16T06:50:14.493Z,110.37
2023-02-16T06:52:41.137Z,102.40
2023-02-16T06:55:08.208Z,99.67
2023-02-16T06:57:34.660Z,103.90
2023-02-16T07:00:01.114Z,115.63
2023-02-16T07:02:27.545Z,115.13
2023-02-16T07:04:54.621Z,107.30
2023-02-16T07:07:21.176Z,102.00
2023-02-16T07:09:47.801Z,108.27
2023-02-16T07:12:14.337Z,98.60
2023-02-16T07:14:42.508Z,98.07
2023-02-16T07:17:10.312Z,95.87
2023-02-16T07:19:36.772Z,101.07
2023-02-16T07:22:05.183Z,99.87
2023-02-16T07:24:31.657Z,93.40
2023-02-16T07:26:58.097Z,100.37
2023-02-16T07:29:24.557Z,104.30
2023-02-16T07:31:51.539Z,92.90
2023-02-16T07:34:20.181Z,98.60
2023-02-16T07:36:47.338Z,101.23
2023-02-16T07:39:13.790Z,91.93
2023-02-16T07:41:40.245Z,89.80
2023-02-16T07:44:06.729Z,99.33
2023-02-16T07:46:33.522Z,90.03
2023-02-16T07:49:00.357Z,102.13
2023-02-16T07:51:28.975Z,93.67
2023-02-16T07:53:55.467Z,86.10
2023-02-16T07:56:27.071Z,86.13
2023-02-16T07:58:55.326Z,82.83
2023-02-16T08:01:22.451Z,83.97
2023-02-16T08:03:49.365Z,74.10
2023-02-16T08:06:16.300Z,73.10
2023-02-16T08:08:42.853Z,76.07
2023-02-16T08:11:19.305Z,75.17
2023-02-16T08:13:46.125Z,81.23
2023-02-16T08:16:18.841Z,70.97
2023-02-16T08:18:45.534Z,72.93
2023-02-16T08:21:18.104Z,71.70
2023-02-16T08:23:56.348Z,68.53
2023-02-16T08:26:24.417Z,78.33
2023-02-16T08:28:51.720Z,69.37
2023-02-16T08:31:23.347Z,63.87
2023-02-16T08:33:50.995Z,66.87
2023-02-16T08:36:19.578Z,64.63
2023-02-16T08:38:50.121Z,66.70
2023-02-16T08:41:18.079Z,65.20
2023-02-16T08:43:44.592Z,69.23
2023-02-16T08:46:11.359Z,67.30
2023-02-16T08:48:39.884Z,63.17
2023-02-16T08:51:07.122Z,61.00
2023-02-16T08:53:35.061Z,64.60
2023-02-16T08:56:03.948Z,61.30
2023-02-16T08:58:31.403Z,59.47
2023-02-16T09:00:58.036Z,65.03
2023-02-16T09:03:25.028Z,58.00
2023-02-16T09:05:55.400Z,59.53
2023-02-16T09:08:21.897Z,61.70
2023-02-16T09:10:48.401Z,55.77
2023-02-16T09:13:15.088Z,58.10
2023-02-16T09:15:43.134Z,57.50
2023-02-16T09:18:14.129Z,56.53
2023-02-16T09:20:44.301Z,61.47
2023-02-16T09:23:12.817Z,56.20
2023-02-16T09:25:40.147Z,57.97
2023-02-16T09:28:06.898Z,56.00
2023-02-16T09:30:34.734Z,55.47
2023-02-16T09:33:01.437Z,58.57
2023-02-16T09:35:27.964Z,59.87
2023-02-16T09:37:54.415Z,57.30
2023-02-16T09:40:21.359Z,57.23
2023-02-16T09:42:58.439Z,60.27
2023-02-16T09:45:26.950Z,65.67
2023-02-16T09:47:55.189Z,61.07
2023-02-16T09:50:52.224Z,62.40
2023-02-16T09:53:40.356Z,59.17
2023-02-16T09:56:25.198Z,61.17
2023-02-16T09:58:57.718Z,63.80
2023-02-16T10:01:34.969Z,64.20
2023-02-16T10:04:20.222Z,64.97
2023-02-16T10:06:58.451Z,58.77
2023-02-16T10:09:27.831Z,65.03
2023-02-16T10:12:12.966Z,68.70
2023-02-16T10:14:56.638Z,60.83
2023-02-16T10:17:37.866Z,60.73
2023-02-16T10:20:16.935Z,65.87
2023-02-16T10:22:53.285Z,59.93
2023-02-16T10:25:37.333Z,63.70
2023-02-16T10:28:22.659Z,67.47
2023-02-16T10:30:55.070Z,58.17
2023-02-16T10:33:33.887Z,63.83
2023-02-16T10:36:04.296Z,61.20
2023-02-16T10:38:40.499Z,64.63
2023-02-16T10:41:28.916Z,58.27
2023-02-16T10:44:01.610Z,65.20
2023-02-16T10:46:38.313Z,60.07
2023-02-16T10:49:04.952Z,59.70
2023-02-16T10:51:34.096Z,58.47
2023-02-16T10:54:21.971Z,61.70
2023-02-16T10:56:59.528Z,56.73
2023-02-16T10:59:44.705Z,56.70
2023-02-16T11:02:21.822Z,58.80
2023-02-16T11:04:52.479Z,63.83
2023-02-16T11:07:22.161Z,59.23
2023-02-16T11:09:53.853Z,60.57
2023-02-16T11:12:35.102Z,61.07
2023-02-16T11:15:13.979Z,63.47
2023-02-16T11:17:53.138Z,60.53
2023-02-16T11:20:51.728Z,60.90
2023-02-16T11:23:27.734Z,61.60
2023-02-16T11:26:13.104Z,59.53
2023-02-16T11:28:42.870Z,62.30
2023-02-16T11:31:21.660Z,66.30
2023-02-16T11:34:05.856Z,64.00
2023-02-16T11:36:38.330Z,60.50
2023-02-16T11:39:14.200Z,59.27
2023-02-16T11:41:56.204Z,62.77
2023-02-16T11:44:32.295Z,58.53
2023-02-16T11:47:01.546Z,59.80
2023-02-16T11:49:42.115Z,63.63
2023-02-16T11:52:37.163Z,61.00
2023-02-16T11:55:04.861Z,62.33
2023-02-16T11:57:35.912Z,59.50
2023-02-16T12:00:14.667Z,64.23
2023-02-16T12:03:09.981Z,62.20
2023-02-16T12:05:43.738Z,64.77
2023-02-16T12:08:25.455Z,59.93
2023-02-16T12:11:06.881Z,62.07
2023-02-16T12:13:43.544Z,60.23
2023-02-16T12:16:48.824Z,60.63
2023-02-16T12:19:44.843Z,57.10
2023-02-16T12:22:14.298Z,55.10
2023-02-16T12:24:57.065Z,57.37
2023-02-16T12:27:40.625Z,57.03
2023-02-16T12:30:28.356Z,59.60
2023-02-16T12:33:13.549Z,55.50
2023-02-16T12:35:51.427Z,55.30
2023-02-16T12:38:55.609Z,58.77
2023-02-16T12:41:53.009Z,57.40
2023-02-16T12:44:29.810Z,58.60
2023-02-16T12:47:08.408Z,60.17
2023-02-16T12:49:43.986Z,57.50
2023-02-16T12:52:18.890Z,53.97
2023-02-16T12:54:49.664Z,58.33
2023-02-16T12:57:20.635Z,59.70
2023-02-16T12:59:55.460Z,62.33
2023-02-16T13:02:43.121Z,53.97
2023-02-16T13:05:21.313Z,58.17
2023-02-16T13:07:52.501Z,62.57
2023-02-16T13:10:39.266Z,65.53
2023-02-16T13:13:12.457Z,62.03
2023-02-16T13:16:17.440Z,65.53
2023-02-16T13:18:56.308Z,63.60
2023-02-16T13:21:51.579Z,69.33
2023-02-16T13:24:40.281Z,69.20
2023-02-16T13:27:22.152Z,58.53
2023-02-16T13:29:54.689Z,59.87
2023-02-16T13:32:46.657Z,65.70
2023-02-16T13:35:25.813Z,59.07
2023-02-16T13:38:10.999Z,60.57
2023-02-16T13:40:51.369Z,61.77
2023-02-16T13:43:26.763Z,60.67
2023-02-16T13:45:54.602Z,61.43
2023-02-16T13:48:29.255Z,60.83
2023-02-16T13:51:05.262Z,64.20
2023-02-16T13:53:40.101Z,57.23
2023-02-16T13:56:29.931Z,56.17
2023-02-16T13:59:19.658Z,58.73
2023-02-16T14:01:47.571Z,54.10
2023-02-16T14:04:23.198Z,58.50
2023-02-16T14:07:13.419Z,57.37
2023-02-16T14:09:39.919Z,58.03
2023-02-16T14:12:09.520Z,58.77
2023-02-16T14:14:42.054Z,58.77
2023-02-16T14:17:14.867Z,61.03
2023-02-16T14:20:00.693Z,60.73
2023-02-16T14:22:45.682Z,63.90
2023-02-16T14:25:24.476Z,63.57
2023-02-16T14:27:51.596Z,82.27
2023-02-16T14:30:27.915Z,70.77
2023-02-16T14:33:27.730Z,63.00
2023-02-16T14:36:00.471Z,63.50
2023-02-16T14:38:40.211Z,66.50
2023-02-16T14:41:13.879Z,64.77
2023-02-16T14:43:45.769Z,67.23
2023-02-16T14:46:18.271Z,64.77
2023-02-16T14:49:22.486Z,64.97
2023-02-16T14:51:57.944Z,66.63
2023-02-16T14:54:43.245Z,64.50
2023-02-16T14:57:24.368Z,72.63
2023-02-16T15:00:02.165Z,62.20
2023-02-16T15:02:30.204Z,73.80
2023-02-16T15:04:57.295Z,74.17
2023-02-16T15:07:25.648Z,69.07
2023-02-16T15:09:57.371Z,67.60
2023-02-16T15:12:29.992Z,70.20
2023-02-16T15:15:07.557Z,68.17
2023-02-16T15:17:38.082Z,71.30
2023-02-16T15:20:21.723Z,73.07
2023-02-16T15:22:57.017Z,71.83
2023-02-16T15:25:27.771Z,73.90
2023-02-16T15:28:14.855Z,80.37
2023-02-16T15:30:53.179Z,78.03
2023-02-16T15:33:23.873Z,80.70
2023-02-16T15:35:57.216Z,82.20
2023-02-16T15:38:34.752Z,77.30
2023-02-16T15:41:04.489Z,85.03
2023-02-16T15:43:43.805Z,85.87
2023-02-16T15:46:23.907Z,80.67
2023-02-16T15:48:50.945Z,88.30
2023-02-16T15:51:33.386Z,92.33
2023-02-16T15:54:01.191Z,90.57
2023-02-16T15:56:45.534Z,88.07
2023-02-16T15:59:35.346Z,82.23
2023-02-16T16:02:21.870Z,87.43
2023-02-16T16:05:01.094Z,87.17
2023-02-16T16:07:32.128Z,87.43
2023-02-16T16:10:00.120Z,86.57
2023-02-16T16:12:27.126Z,89.33
2023-02-16T16:14:56.391Z,88.43
2023-02-16T16:17:29.776Z,94.63
2023-02-16T16:19:58.165Z,95.53
2023-02-16T16:22:39.724Z,88.23
2023-02-16T16:25:30.402Z,90.63
2023-02-16T16:27:57.253Z,93.43
2023-02-16T16:30:23.728Z,96.57
2023-02-16T16:33:07.711Z,90.57
2023-02-16T16:35:46.441Z,91.40
2023-02-16T16:38:28.234Z,91.20
2023-02-16T16:40:57.859Z,87.37
2023-02-16T16:43:32.925Z,82.73
2023-02-16T16:46:19.266Z,89.10
2023-02-16T16:48:47.659Z,94.20
2023-02-16T16:51:36.487Z,94.40
2023-02-16T16:54:05.578Z,95.77
2023-02-16T16:56:36.830Z,94.70
2023-02-16T16:59:04.220Z,82.17
2023-02-16T17:01:31.105Z,96.73
2023-02-16T17:03:58.177Z,98.30
2023-02-16T17:06:25.320Z,103.50
2023-02-16T17:08:51.969Z,99.63
2023-02-16T17:11:34.241Z,93.63
2023-02-16T17:14:08.492Z,92.80
2023-02-16T17:16:38.520Z,101.07
2023-02-16T17:19:05.064Z,103.13
2023-02-16T17:21:31.527Z,103.17
2023-02-16T17:23:57.972Z,103.53
2023-02-16T17:26:24.529Z,89.87
2023-02-16T17:28:51.145Z,110.77
2023-02-16T17:31:17.718Z,97.13
2023-02-16T17:33:44.875Z,101.00
2023-02-16T17:36:13.871Z,97.33
2023-02-16T17:38:40.404Z,102.80
2023-02-16T17:41:06.926Z,98.00
2023-02-16T17:43:33.377Z,98.50
2023-02-16T17:46:04.700Z,104.80
2023-02-16T17:48:31.443Z,101.37
2023-02-16T17:50:58.280Z,100.37
2023-02-16T17:53:25.903Z,107.47
2023-02-16T17:55:54.572Z,105.07
2023-02-16T17:58:22.332Z,103.57
2023-02-16T18:00:48.972Z,105.43
2023-02-16T18:03:15.601Z,104.60
2023-02-16T18:05:42.099Z,110.03
2023-02-16T18:08:08.662Z,107.30
2023-02-16T18:10:46.549Z,101.63
2023-02-16T18:13:13.815Z,108.33
2023-02-16T18:15:42.767Z,105.60
2023-02-16T18:18:09.362Z,104.40
2023-02-16T18:20:36.023Z,98.03
2023-02-16T18:23:02.691Z,105.10
2023-02-16T18:25:30.880Z,104.80
2023-02-16T18:27:57.651Z,100.47
2023-02-16T18:30:24.482Z,108.93
2023-02-16T18:32:51.932Z,99.73
2023-02-16T18:35:19.878Z,100.37
2023-02-16T18:37:47.521Z,101.37
2023-02-16T18:40:17.761Z,100.57
2023-02-16T18:42:45.530Z,110.23
2023-02-16T18:45:12.880Z,104.33
2023-02-16T18:47:42.884Z,109.07
2023-02-16T18:50:09.965Z,105.67
2023-02-16T18:52:37.121Z,112.07
2023-02-16T18:55:03.963Z,105.13
2023-02-16T18:57:33.715Z,116.30
2023-02-16T19:00:01.126Z,103.67
2023-02-16T19:02:28.144Z,94.60
2023-02-16T19:04:58.787Z,96.63
2023-02-16T19:07:33.226Z,96.23
2023-02-16T19:10:03.672Z,104.43
2023-02-16T19:12:33.876Z,106.53
2023-02-16T19:15:00.647Z,95.40
2023-02-16T19:17:30.528Z,106.47
2023-02-16T19:19:57.521Z,97.83
2023-02-16T19:22:24.822Z,97.00
2023-02-16T19:24:54.116Z,99.87
2023-02-16T19:27:21.061Z,96.37
2023-02-16T19:29:51.062Z,103.43
2023-02-16T19:32:21.073Z,103.67
2023-02-16T19:34:54.145Z,94.60
2023-02-16T19:37:24.372Z,99.87
2023-02-16T19:39:54.270Z,100.53
2023-02-16T19:42:21.991Z,97.43
2023-02-16T19:45:00.242Z,114.73
2023-02-16T19:47:27.520Z,99.87
2023-02-16T19:49:54.909Z,90.90
2023-02-16T19:52:27.776Z,108.73
2023-02-16T19:54:55.402Z,97.43
2023-02-16T19:57:21.913Z,100.43
2023-02-16T19:59:48.347Z,91.63
2023-02-16T20:02:15.594Z,104.10
2023-02-16T20:04:42.953Z,93.13
2023-02-16T20:07:09.835Z,91.13
2023-02-16T20:09:37.361Z,94.40
2023-02-16T20:12:04.733Z,100.73
2023-02-16T20:14:31.306Z,91.37
2023-02-16T20:16:57.742Z,91.83
2023-02-16T20:19:24.241Z,82.97
2023-02-16T20:21:51.348Z,91.03
2023-02-16T20:24:18.819Z,89.70
2023-02-16T20:26:47.134Z,85.37
2023-02-16T20:29:17.917Z,79.23
2023-02-16T20:31:53.441Z,84.60
2023-02-16T20:34:21.503Z,83.80
2023-02-16T20:36:48.088Z,86.37
2023-02-16T20:39:15.139Z,79.43
2023-02-16T20:41:41.701Z,83.97
2023-02-16T20:44:08.251Z,80.37
2023-02-16T20:46:34.723Z,76.57
2023-02-16T20:49:01.268Z,80.87
2023-02-16T20:51:27.948Z,75.57
2023-02-16T20:53:54.430Z,73.53
2023-02-16T20:56:23.483Z,79.20
2023-02-16T20:58:51.332Z,81.80
2023-02-16T21:01:20.774Z,97.37
2023-02-16T21:03:47.406Z,108.10
2023-02-16T21:06:15.043Z,108.27
2023-02-16T21:08:41.728Z,116.23
2023-02-16T21:11:08.333Z,114.80
2023-02-16T21:13:38.712Z,119.57
2023-02-16T21:16:06.144Z,122.23
2023-02-16T21:18:33.392Z,123.77
2023-02-16T21:21:01.031Z,118.23
2023-02-16T21:23:28.110Z,121.83
2023-02-16T21:26:03.269Z,122.00
2023-02-16T21:28:30.018Z,130.80
2023-02-16T21:30:56.797Z,123.80
2023-02-16T21:33:23.337Z,121.77
2023-02-16T21:35:49.837Z,109.27
2023-02-16T21:38:17.801Z,115.20
2023-02-16T21:41:02.856Z,120.40
2023-02-16T21:43:31.457Z,114.87
2023-02-16T21:45:59.884Z,109.97
2023-02-16T21:48:44.950Z,119.20
2023-02-16T21:51:15.424Z,110.43
2023-02-16T21:53:41.972Z,115.33
2023-02-16T21:56:26.855Z,102.60
2023-02-16T21:58:53.536Z,102.43
2023-02-16T22:01:22.079Z,97.00
2023-02-16T22:03:48.681Z,117.37
2023-02-16T22:06:15.593Z,113.27
2023-02-16T22:08:42.221Z,102.20
2023-02-16T22:11:11.474Z,95.10
2023-02-16T22:13:38.652Z,113.90
2023-02-16T22:16:10.250Z,107.37
2023-02-16T22:18:37.184Z,112.40
2023-02-16T22:21:04.987Z,100.53
2023-02-16T22:23:31.604Z,105.37
2023-02-16T22:25:59.506Z,104.60
2023-02-16T22:28:27.720Z,98.73
2023-02-16T22:30:58.114Z,105.47
2023-02-16T22:33:24.952Z,95.80
2023-02-16T22:35:51.461Z,91.60
2023-02-16T22:38:20.358Z,95.73
2023-02-16T22:40:48.716Z,111.63
2023-02-16T22:43:16.803Z,100.40
2023-02-16T22:45:43.576Z,90.07
2023-02-16T22:48:10.069Z,98.00
2023-02-16T22:50:36.534Z,107.43
2023-02-16T22:53:05.076Z,98.20
2023-02-16T22:55:31.545Z,105.00
2023-02-16T22:57:57.984Z,88.93
2023-02-16T23:00:24.543Z,87.03
2023-02-16T23:02:51.012Z,93.07
2023-02-16T23:05:17.632Z,87.10
2023-02-16T23:07:44.102Z,94.83
2023-02-16T23:10:10.778Z,97.93
2023-02-16T23:12:37.309Z,94.47
2023-02-16T23:15:04.032Z,102.70
2023-02-16T23:17:30.510Z,101.20
2023-02-16T23:19:57.030Z,90.53
2023-02-16T23:22:23.503Z,109.43
2023-02-16T23:25:09.979Z,111.13
2023-02-16T23:27:36.512Z,106.30
2023-02-16T23:30:03.629Z,104.57
2023-02-16T23:32:30.130Z,107.93
2023-02-16T23:34:56.656Z,114.80
2023-02-16T23:37:23.117Z,97.80
2023-02-16T23:39:49.617Z,98.83
2023-02-16T23:42:16.106Z,96.20
2023-02-16T23:44:42.603Z,98.53
2023-02-16T23:47:09.100Z,106.50
2023-02-16T23:49:35.644Z,93.87
2023-02-16T23:52:02.120Z,97.13
2023-02-16T23:54:28.645Z,97.57
2023-02-16T23:56:55.115Z,91.73
2023-02-16T23:59:21.658Z,90.80
